Time;durP1;ratioP1;P1;durP2;ratioP2;P2;SDS_P1;SDS_P2;PMS_P1;PMS_P2;Temp;Humidity;BMP_temperature;BMP_pressure;BME280_temperature;BME280_humidity;BME280_pressure;Samples;Min_cycle;Max_cycle;Signal;HPM_P1;HPM_P2
2022/11/14 00:01:19;;;;;;;18.93;12.20;;;9.90;1.00;;;;;;5055720;28;20209;-76
2022/11/14 00:03:48;;;;;;;16.43;11.70;;;9.90;1.00;;;;;;5053560;28;20534;-76
2022/11/14 00:06:13;;;;;;;17.33;12.47;;;9.90;1.00;;;;;;5054059;28;20471;-77
2022/11/14 00:08:39;;;;;;;19.93;14.80;;;9.90;99.90;;;;;;5055407;28;20427;-80
2022/11/14 00:11:05;;;;;;;17.07;13.20;;;9.80;99.90;;;;;;5055516;28;20175;-77
2022/11/14 00:13:30;;;;;;;18.33;13.60;;;9.80;99.90;;;;;;5055009;28;20171;-77
2022/11/14 00:15:56;;;;;;;19.17;12.17;;;9.80;99.90;;;;;;5054790;28;20251;-77
2022/11/14 00:18:22;;;;;;;22.47;14.73;;;9.80;99.90;;;;;;5054982;28;20174;-78
2022/11/14 00:20:52;;;;;;;15.83;12.83;;;9.70;99.90;;;;;;5055260;28;20250;-77
2022/11/14 00:23:19;;;;;;;21.80;13.90;;;9.70;99.90;;;;;;5055095;28;20402;-77
2022/11/14 00:25:45;;;;;;;20.20;14.27;;;9.70;99.90;;;;;;5054004;28;20497;-79
2022/11/14 00:28:12;;;;;;;21.77;13.57;;;9.60;99.90;;;;;;5054768;28;20463;-79
2022/11/14 00:30:37;;;;;;;19.83;14.23;;;9.60;99.90;;;;;;5055337;28;20732;-77
2022/11/14 00:33:03;;;;;;;20.30;14.00;;;9.50;99.90;;;;;;5054693;28;20421;-79
2022/11/14 00:35:29;;;;;;;18.83;13.40;;;9.50;99.90;;;;;;5054092;28;20231;-79
2022/11/14 00:37:54;;;;;;;22.47;14.40;;;9.40;99.90;;;;;;5054798;28;20180;-79
2022/11/14 00:40:20;;;;;;;18.20;13.90;;;9.40;99.90;;;;;;5054699;28;20547;-77
2022/11/14 00:42:46;;;;;;;19.03;12.63;;;9.30;99.90;;;;;;5054070;28;20178;-76
2022/11/14 00:45:11;;;;;;;21.80;13.00;;;9.20;99.90;;;;;;5054169;28;20172;-78
2022/11/14 00:47:37;;;;;;;18.90;12.17;;;9.20;99.90;;;;;;5054574;28;20714;-78
2022/11/14 00:50:04;;;;;;;21.13;13.90;;;9.20;99.90;;;;;;5054971;28;20168;-77
2022/11/14 00:52:29;;;;;;;21.93;13.73;;;9.20;99.90;;;;;;5053124;28;20173;-76
2022/11/14 00:54:55;;;;;;;17.07;11.50;;;9.10;99.90;;;;;;5053874;28;20492;-77
2022/11/14 00:57:21;;;;;;;20.47;13.10;;;9.20;99.90;;;;;;5054314;28;20281;-78
2022/11/14 00:59:46;;;;;;;23.60;14.70;;;9.20;99.90;;;;;;5053667;28;20179;-78
2022/11/14 01:02:12;;;;;;;19.00;13.27;;;9.30;99.90;;;;;;5053739;28;20280;-79
2022/11/14 01:04:38;;;;;;;23.20;14.53;;;9.30;99.90;;;;;;5053361;28;20221;-77
2022/11/14 01:07:04;;;;;;;19.10;13.77;;;9.30;99.90;;;;;;5054118;28;20193;-78
2022/11/14 01:09:30;;;;;;;19.07;13.30;;;9.30;99.90;;;;;;5054417;28;20508;-78
2022/11/14 01:11:56;;;;;;;19.27;13.40;;;9.30;99.90;;;;;;5052849;28;20176;-76
2022/11/14 01:14:21;;;;;;;20.63;13.20;;;9.30;99.90;;;;;;5053246;28;20202;-79
2022/11/14 01:16:47;;;;;;;23.07;14.37;;;9.30;99.90;;;;;;5053853;28;20231;-77
2022/11/14 01:19:13;;;;;;;18.67;14.43;;;9.20;99.90;;;;;;5052797;28;20220;-77
2022/11/14 01:21:38;;;;;;;19.90;13.33;;;9.20;99.90;;;;;;5053933;28;20197;-77
2022/11/14 01:24:05;;;;;;;22.50;13.97;;;9.20;99.90;;;;;;5053249;28;20171;-77
2022/11/14 01:26:30;;;;;;;17.13;13.20;;;9.20;99.90;;;;;;5053576;28;20190;-76
2022/11/14 01:28:56;;;;;;;21.40;14.43;;;9.20;99.90;;;;;;5054093;28;20424;-76
2022/11/14 01:31:24;;;;;;;22.67;14.17;;;9.20;99.90;;;;;;5053697;28;20654;-77
2022/11/14 01:33:52;;;;;;;16.77;13.10;;;9.20;99.90;;;;;;5053198;28;20173;-77
2022/11/14 01:36:18;;;;;;;18.30;13.27;;;9.20;99.90;;;;;;5053588;28;20540;-79
2022/11/14 01:38:51;;;;;;;23.13;14.77;;;9.10;99.90;;;;;;5053445;28;20410;-77
2022/11/14 01:41:16;;;;;;;24.53;16.47;;;9.00;99.90;;;;;;5053219;28;20464;-76
2022/11/14 01:43:42;;;;;;;23.60;14.50;;;9.00;99.90;;;;;;5052911;28;20406;-76
2022/11/14 01:46:11;;;;;;;20.90;14.40;;;9.00;99.90;;;;;;5053591;28;20186;-78
2022/11/14 01:49:02;;;;;;;20.67;14.27;;;9.00;99.90;;;;;;5053794;28;20393;-79
2022/11/14 01:51:33;;;;;;;26.67;15.73;;;9.10;99.90;;;;;;5053681;28;20778;-78
2022/11/14 01:54:02;;;;;;;25.73;16.50;;;9.10;99.90;;;;;;5052931;28;20437;-76
2022/11/14 01:56:44;;;;;;;24.00;17.27;;;9.10;99.90;;;;;;5052893;28;20445;-79
2022/11/14 01:59:14;;;;;;;24.53;14.60;;;9.20;99.90;;;;;;5052096;28;20428;-78
2022/11/14 02:01:50;;;;;;;24.80;16.00;;;9.20;99.90;;;;;;5053131;28;20506;-77
2022/11/14 02:04:24;;;;;;;23.70;16.57;;;9.10;99.90;;;;;;5051559;28;20899;-79
2022/11/14 02:06:53;;;;;;;24.97;16.90;;;9.20;99.90;;;;;;5052997;28;20858;-77
2022/11/14 02:09:19;;;;;;;27.97;16.03;;;9.10;99.90;;;;;;5052930;28;20421;-76
2022/11/14 02:11:45;;;;;;;26.47;15.67;;;9.20;99.90;;;;;;5053451;28;20404;-79
2022/11/14 02:14:11;;;;;;;28.07;16.07;;;9.20;99.90;;;;;;5051959;28;20472;-79
2022/11/14 02:16:41;;;;;;;24.70;14.80;;;9.20;99.90;;;;;;5053052;28;20887;-76
2022/11/14 02:19:07;;;;;;;25.20;16.00;;;9.20;99.90;;;;;;5052998;28;20438;-77
2022/11/14 02:21:33;;;;;;;30.73;17.53;;;9.20;99.90;;;;;;5053393;28;20430;-78
2022/11/14 02:23:59;;;;;;;27.30;15.50;;;9.20;99.90;;;;;;5052168;28;20414;-76
2022/11/14 02:26:25;;;;;;;34.43;17.80;;;9.30;99.90;;;;;;5054640;28;20186;-76
2022/11/14 02:28:51;;;;;;;23.20;14.70;;;9.20;99.90;;;;;;5059510;28;20639;-78
2022/11/14 02:31:16;;;;;;;24.13;16.53;;;9.20;99.90;;;;;;5059736;28;20486;-79
2022/11/14 02:33:42;;;;;;;24.50;15.37;;;9.20;99.90;;;;;;5058200;28;20422;-77
2022/11/14 02:36:09;;;;;;;28.00;17.43;;;9.20;99.90;;;;;;5059825;28;20193;-78
2022/11/14 02:38:34;;;;;;;27.77;16.63;;;9.10;99.90;;;;;;5059599;28;20255;-77
2022/11/14 02:41:01;;;;;;;27.57;17.37;;;9.10;99.90;;;;;;5058039;28;20531;-77
2022/11/14 02:43:27;;;;;;;25.77;17.23;;;9.10;99.90;;;;;;5059344;28;20181;-76
2022/11/14 02:45:52;;;;;;;27.80;16.10;;;9.10;99.90;;;;;;5059103;28;20418;-76
2022/11/14 02:48:18;;;;;;;27.23;17.80;;;9.10;99.90;;;;;;5058302;28;20178;-78
2022/11/14 02:50:46;;;;;;;29.37;18.30;;;9.10;99.90;;;;;;5058566;28;20176;-78
2022/11/14 02:53:12;;;;;;;25.17;15.53;;;9.10;99.90;;;;;;5059044;28;20941;-77
2022/11/14 02:55:38;;;;;;;24.30;16.10;;;9.10;99.90;;;;;;5058676;28;20478;-78
2022/11/14 02:58:03;;;;;;;33.27;16.33;;;9.20;99.90;;;;;;5058095;28;20185;-76
2022/11/14 03:00:29;;;;;;;23.60;15.20;;;9.20;99.90;;;;;;5059625;28;20287;-76
2022/11/14 03:02:55;;;;;;;27.93;15.93;;;9.10;99.90;;;;;;5059239;28;20178;-78
2022/11/14 03:05:20;;;;;;;25.53;15.40;;;9.20;99.90;;;;;;5058288;28;20186;-79
2022/11/14 03:07:46;;;;;;;23.60;14.67;;;9.10;99.90;;;;;;5059417;28;20634;-77
2022/11/14 03:10:12;;;;;;;28.73;15.97;;;9.20;99.90;;;;;;5059185;28;20173;-78
2022/11/14 03:12:38;;;;;;;29.40;18.67;;;9.10;99.90;;;;;;5059546;28;20176;-78
2022/11/14 03:15:06;;;;;;;32.63;14.73;;;9.00;99.90;;;;;;5058481;28;20510;-78
2022/11/14 03:17:34;;;;;;;29.20;15.50;;;9.10;99.90;;;;;;5059250;28;20462;-77
2022/11/14 03:20:00;;;;;;;26.63;17.03;;;9.10;99.90;;;;;;5059196;28;20515;-76
2022/11/14 03:22:26;;;;;;;27.70;16.53;;;9.10;99.90;;;;;;5059540;28;20918;-76
2022/11/14 03:24:52;;;;;;;21.77;15.07;;;9.00;99.90;;;;;;5058262;28;20211;-77
2022/11/14 03:27:19;;;;;;;27.47;16.17;;;9.00;99.90;;;;;;5058901;28;20448;-77
2022/11/14 03:29:46;;;;;;;41.30;16.50;;;9.10;99.90;;;;;;5059070;28;20219;-78
2022/11/14 03:32:12;;;;;;;23.40;16.10;;;9.10;99.90;;;;;;5058000;28;20421;-76
2022/11/14 03:34:38;;;;;;;29.80;17.50;;;9.10;99.90;;;;;;5058245;28;20771;-76
2022/11/14 03:37:03;;;;;;;27.27;16.20;;;9.10;99.90;;;;;;5057939;28;20606;-78
2022/11/14 03:39:29;;;;;;;21.37;14.83;;;9.10;99.90;;;;;;5054641;28;20204;-77
2022/11/14 03:41:55;;;;;;;26.33;16.57;;;9.10;99.90;;;;;;5054401;28;20208;-77
2022/11/14 03:44:21;;;;;;;27.33;17.13;;;9.10;99.90;;;;;;5054754;28;20174;-77
2022/11/14 03:46:47;;;;;;;26.17;16.70;;;9.10;99.90;;;;;;5055373;28;20206;-78
2022/11/14 03:49:12;;;;;;;25.77;14.53;;;9.00;99.90;;;;;;5056214;28;20396;-78
2022/11/14 03:51:38;;;;;;;28.67;17.30;;;9.00;99.90;;;;;;5055462;28;20186;-76
2022/11/14 03:54:04;;;;;;;25.70;16.13;;;9.00;99.90;;;;;;5054953;28;20179;-78
2022/11/14 03:56:30;;;;;;;27.70;17.37;;;9.00;99.90;;;;;;5055462;28;20206;-76
2022/11/14 03:58:55;;;;;;;25.17;17.13;;;9.10;99.90;;;;;;5055572;28;20759;-78
2022/11/14 04:01:21;;;;;;;25.90;17.07;;;9.10;99.90;;;;;;5055683;28;20198;-76
2022/11/14 04:03:47;;;;;;;27.03;16.53;;;9.00;99.90;;;;;;5054391;28;20531;-79
2022/11/14 04:06:14;;;;;;;24.83;16.07;;;9.00;99.90;;;;;;5055359;28;20203;-76
2022/11/14 04:08:40;;;;;;;30.20;17.80;;;9.00;99.90;;;;;;5055627;28;20209;-78
2022/11/14 04:11:06;;;;;;;24.43;16.07;;;9.10;99.90;;;;;;5055111;28;20392;-79
2022/11/14 04:13:32;;;;;;;28.90;14.33;;;9.10;99.90;;;;;;5055320;28;20727;-79
2022/11/14 04:15:58;;;;;;;26.90;17.07;;;9.00;99.90;;;;;;5053399;28;20499;-77
2022/11/14 04:18:25;;;;;;;28.90;17.73;;;9.00;99.90;;;;;;5055455;28;20415;-76
2022/11/14 04:20:51;;;;;;;26.57;16.30;;;9.00;99.90;;;;;;5055064;28;20457;-76
2022/11/14 04:23:18;;;;;;;26.53;16.50;;;8.90;99.90;;;;;;5054705;28;20443;-77
2022/11/14 04:25:44;;;;;;;28.20;16.87;;;8.90;99.90;;;;;;5052875;28;20428;-79
2022/11/14 04:28:11;;;;;;;24.83;17.40;;;8.90;99.90;;;;;;5054948;28;20379;-77
2022/11/14 04:30:37;;;;;;;27.40;17.60;;;8.90;99.90;;;;;;5055347;28;20411;-78
2022/11/14 04:33:03;;;;;;;28.40;16.67;;;8.90;99.90;;;;;;5054871;28;20786;-78
2022/11/14 04:35:29;;;;;;;25.43;17.10;;;8.80;99.90;;;;;;5054116;28;20258;-76
2022/11/14 04:37:54;;;;;;;35.77;19.27;;;8.80;99.90;;;;;;5054645;28;20532;-78
2022/11/14 04:40:24;;;;;;;26.80;16.47;;;8.70;99.90;;;;;;5054947;28;20538;-78
2022/11/14 04:42:49;;;;;;;29.10;17.23;;;8.80;99.90;;;;;;5054303;28;20572;-77
2022/11/14 04:45:15;;;;;;;25.83;16.97;;;8.80;99.90;;;;;;5053983;28;20490;-78
2022/11/14 04:47:41;;;;;;;29.00;16.33;;;8.80;99.90;;;;;;5053325;28;20228;-77
2022/11/14 04:50:08;;;;;;;27.57;17.77;;;8.80;99.90;;;;;;5054579;28;20182;-77
2022/11/14 04:52:34;;;;;;;28.20;17.30;;;8.80;99.90;;;;;;5054477;28;20909;-76
2022/11/14 04:55:00;;;;;;;29.83;17.27;;;8.80;99.90;;;;;;5053770;28;20409;-78
2022/11/14 04:57:26;;;;;;;26.13;15.87;;;8.80;99.90;;;;;;5054484;28;20190;-78
2022/11/14 04:59:52;;;;;;;27.33;17.30;;;8.80;99.90;;;;;;5054676;28;20174;-77
2022/11/14 05:02:17;;;;;;;26.47;17.37;;;8.80;99.90;;;;;;5052372;28;20444;-77
2022/11/14 05:04:44;;;;;;;26.53;18.47;;;8.80;99.90;;;;;;5053525;28;20427;-78
2022/11/14 05:07:10;;;;;;;27.60;16.90;;;8.80;99.90;;;;;;5054201;28;20189;-78
2022/11/14 05:09:36;;;;;;;24.50;16.60;;;8.80;99.90;;;;;;5054565;28;20388;-77
2022/11/14 05:12:03;;;;;;;28.67;15.57;;;8.80;99.90;;;;;;5054248;28;20473;-79
2022/11/14 05:14:30;;;;;;;24.70;15.47;;;8.80;99.90;;;;;;5052356;28;20182;-78
2022/11/14 05:16:56;;;;;;;26.27;17.10;;;8.80;99.90;;;;;;5053271;28;20433;-76
2022/11/14 05:19:22;;;;;;;23.37;16.93;;;8.80;99.90;;;;;;5053913;28;20553;-79
2022/11/14 05:21:47;;;;;;;22.20;14.80;;;8.80;99.90;;;;;;5053855;28;20502;-78
2022/11/14 05:24:13;;;;;;;26.13;17.43;;;8.80;99.90;;;;;;5052000;28;20235;-77
2022/11/14 05:26:39;;;;;;;22.23;15.30;;;8.80;99.90;;;;;;5069216;28;20206;-77
2022/11/14 05:29:05;;;;;;;28.70;15.90;;;8.80;99.90;;;;;;5054116;28;20163;-77
2022/11/14 05:31:31;;;;;;;29.93;17.53;;;8.80;99.90;;;;;;5053754;28;20180;-76
2022/11/14 05:33:57;;;;;;;27.43;16.03;;;8.80;99.90;;;;;;5053108;28;20608;-76
2022/11/14 05:36:22;;;;;;;25.50;16.87;;;8.70;99.90;;;;;;5053101;28;20418;-77
2022/11/14 05:38:48;;;;;;;24.83;17.23;;;8.70;99.90;;;;;;5053786;28;20182;-76
2022/11/14 05:41:16;;;;;;;27.27;17.50;;;8.70;99.90;;;;;;5053703;28;20556;-77
2022/11/14 05:43:43;;;;;;;30.10;17.67;;;8.70;99.90;;;;;;5052894;28;20175;-77
2022/11/14 05:46:11;;;;;;;21.93;15.40;;;8.60;99.90;;;;;;5052178;28;20437;-76
2022/11/14 05:48:38;;;;;;;22.80;15.57;;;8.70;99.90;;;;;;5053551;28;20949;-77
2022/11/14 05:51:05;;;;;;;21.30;16.23;;;8.70;99.90;;;;;;5053537;28;20382;-79
2022/11/14 05:53:33;;;;;;;26.70;15.17;;;8.70;99.90;;;;;;5053052;28;20433;-79
2022/11/14 05:56:08;;;;;;;23.03;15.00;;;8.70;99.90;;;;;;5052641;28;20504;-76
2022/11/14 05:58:34;;;;;;;22.67;15.00;;;8.70;99.90;;;;;;5053647;28;20804;-76
2022/11/14 06:01:09;;;;;;;29.93;15.10;;;8.70;99.90;;;;;;5052750;28;20461;-76
2022/11/14 06:03:38;;;;;;;26.23;16.37;;;8.70;99.90;;;;;;5053246;28;20397;-75
2022/11/14 06:06:06;;;;;;;28.67;16.40;;;8.70;99.90;;;;;;5052114;28;20425;-78
2022/11/14 06:08:32;;;;;;;26.17;16.87;;;8.70;99.90;;;;;;5051997;28;20406;-76
2022/11/14 06:11:08;;;;;;;23.67;16.07;;;8.70;99.90;;;;;;5053119;28;20898;-77
2022/11/14 06:13:37;;;;;;;30.37;18.87;;;8.70;99.90;;;;;;5059803;28;20417;-77
2022/11/14 06:16:09;;;;;;;26.90;16.63;;;8.70;99.90;;;;;;5053105;28;20452;-76
2022/11/14 06:18:36;;;;;;;24.60;16.40;;;8.70;99.90;;;;;;5052108;28;20411;-78
2022/11/14 06:21:05;;;;;;;31.20;17.13;;;8.70;99.90;;;;;;5052791;28;20480;-78
2022/11/14 06:23:30;;;;;;;25.30;15.80;;;8.60;99.90;;;;;;5053141;28;20451;-78
2022/11/14 06:26:04;;;;;;;29.47;17.30;;;8.50;99.90;;;;;;5052339;28;20520;-75
2022/11/14 06:28:30;;;;;;;24.90;15.90;;;8.50;99.90;;;;;;5052915;28;20258;-76
2022/11/14 06:31:00;;;;;;;24.57;16.97;;;8.60;99.90;;;;;;5052880;28;20771;-78
2022/11/14 06:33:33;;;;;;;23.50;16.40;;;8.60;99.90;;;;;;5052752;28;20429;-77
2022/11/14 06:36:01;;;;;;;24.90;16.57;;;8.60;99.90;;;;;;5052221;28;20444;-75
2022/11/14 06:38:29;;;;;;;28.30;15.90;;;8.70;99.90;;;;;;5053175;28;20924;-75
2022/11/14 06:41:05;;;;;;;24.20;17.70;;;8.70;99.90;;;;;;5052460;28;20456;-76
2022/11/14 06:43:42;;;;;;;23.43;15.70;;;8.60;99.90;;;;;;5068144;28;20422;-78
2022/11/14 06:46:10;;;;;;;23.20;15.40;;;8.60;99.90;;;;;;5053110;28;20426;-76
2022/11/14 06:48:36;;;;;;;27.30;16.10;;;8.60;99.90;;;;;;5052304;28;20417;-75
2022/11/14 06:51:03;;;;;;;31.70;17.27;;;8.60;99.90;;;;;;5052688;28;20423;-78
2022/11/14 06:53:31;;;;;;;23.20;16.13;;;8.60;99.90;;;;;;5052318;28;20431;-78
2022/11/14 06:56:05;;;;;;;25.03;16.33;;;8.60;99.90;;;;;;5052336;28;20421;-76
2022/11/14 06:58:34;;;;;;;27.40;15.70;;;8.60;99.90;;;;;;5053055;28;20403;-77
2022/11/14 07:01:05;;;;;;;27.17;16.10;;;8.70;99.90;;;;;;5052904;28;20447;-76
2022/11/14 07:03:31;;;;;;;26.73;17.00;;;8.60;99.90;;;;;;5052720;28;20480;-77
2022/11/14 07:06:00;;;;;;;27.47;18.43;;;8.60;99.90;;;;;;5051979;28;20499;-76
2022/11/14 07:08:27;;;;;;;26.47;17.27;;;8.60;99.90;;;;;;5053073;28;20401;-77
2022/11/14 07:10:52;;;;;;;26.03;17.93;;;8.60;99.90;;;;;;5052901;28;20410;-78
2022/11/14 07:13:18;;;;;;;29.10;16.70;;;8.60;99.90;;;;;;5053260;28;20418;-80
2022/11/14 07:15:52;;;;;;;23.80;16.20;;;8.60;99.90;;;;;;5056149;28;20472;-77
2022/11/14 07:18:18;;;;;;;30.33;16.60;;;8.60;99.90;;;;;;5056578;28;20506;-77
2022/11/14 07:20:44;;;;;;;26.00;17.40;;;8.60;99.90;;;;;;5056495;28;21049;-76
2022/11/14 07:23:10;;;;;;;29.40;16.87;;;8.60;99.90;;;;;;5056453;28;20483;-79
2022/11/14 07:25:35;;;;;;;38.40;19.53;;;8.70;99.90;;;;;;5054110;28;20194;-77
2022/11/14 07:28:01;;;;;;;28.77;17.37;;;8.70;99.90;;;;;;5056352;28;20227;-77
2022/11/14 07:30:27;;;;;;;28.50;17.13;;;8.70;99.90;;;;;;5056414;28;20164;-75
2022/11/14 07:32:56;;;;;;;28.60;18.17;;;8.80;99.90;;;;;;5056282;28;20223;-77
2022/11/14 07:35:22;;;;;;;24.87;17.80;;;8.80;99.90;;;;;;5055472;28;20168;-78
2022/11/14 07:37:49;;;;;;;24.63;16.00;;;8.70;99.90;;;;;;5054898;28;20409;-75
2022/11/14 07:40:15;;;;;;;31.07;17.90;;;8.70;99.90;;;;;;5056351;28;20398;-77
2022/11/14 07:42:41;;;;;;;27.20;16.90;;;8.80;99.90;;;;;;5056289;28;20735;-77
2022/11/14 07:45:08;;;;;;;28.30;17.20;;;8.80;99.90;;;;;;5055112;28;20415;-77
2022/11/14 07:47:33;;;;;;;27.40;17.63;;;8.80;99.90;;;;;;5055696;28;20193;-78
2022/11/14 07:49:59;;;;;;;26.73;18.37;;;8.70;99.90;;;;;;5056156;28;20407;-78
2022/11/14 07:52:25;;;;;;;27.70;18.17;;;8.70;99.90;;;;;;5056244;28;20180;-75
2022/11/14 07:54:51;;;;;;;29.80;19.10;;;8.70;99.90;;;;;;5055295;28;20174;-75
2022/11/14 07:57:16;;;;;;;27.57;17.60;;;8.80;99.90;;;;;;5055941;28;20263;-75
2022/11/14 07:59:42;;;;;;;29.33;17.53;;;8.80;99.90;;;;;;5055812;28;20716;-78
2022/11/14 08:02:13;;;;;;;28.67;17.63;;;8.80;99.90;;;;;;5055128;28;20583;-78
2022/11/14 08:04:40;;;;;;;31.50;19.07;;;8.80;99.90;;;;;;5055234;28;20178;-75
2022/11/14 08:07:06;;;;;;;30.93;18.50;;;8.70;99.90;;;;;;5054371;28;20422;-76
2022/11/14 08:09:31;;;;;;;34.07;19.00;;;8.70;99.90;;;;;;5055546;28;20520;-78
2022/11/14 08:11:57;;;;;;;36.27;20.70;;;8.70;99.90;;;;;;5055667;28;20403;-75
2022/11/14 08:14:23;;;;;;;27.57;19.47;;;8.70;99.90;;;;;;5053713;28;20231;-78
2022/11/14 08:16:49;;;;;;;29.13;16.30;;;8.70;99.90;;;;;;5054034;28;20207;-78
2022/11/14 08:19:16;;;;;;;33.50;18.60;;;8.80;99.90;;;;;;5055595;28;20424;-77
2022/11/14 08:21:42;;;;;;;33.97;19.30;;;8.80;99.90;;;;;;5054029;28;20541;-78
2022/11/14 08:24:08;;;;;;;32.00;19.87;;;8.80;99.90;;;;;;5054134;28;20426;-76
2022/11/14 08:26:34;;;;;;;36.27;19.53;;;8.80;99.90;;;;;;5055234;28;20801;-78
2022/11/14 08:29:00;;;;;;;31.87;17.73;;;8.80;99.90;;;;;;5055304;28;20422;-77
2022/11/14 08:31:26;;;;;;;30.20;18.33;;;8.80;99.90;;;;;;5055249;28;20172;-78
2022/11/14 08:33:52;;;;;;;35.47;21.10;;;8.80;99.90;;;;;;5052032;28;20176;-79
2022/11/14 08:36:18;;;;;;;33.50;19.90;;;8.70;99.90;;;;;;5055051;28;20430;-77
2022/11/14 08:38:43;;;;;;;36.47;19.60;;;8.70;99.90;;;;;;5054837;28;20388;-76
2022/11/14 08:41:09;;;;;;;35.07;20.83;;;8.80;99.90;;;;;;5053654;28;20459;-76
2022/11/14 08:43:35;;;;;;;35.17;19.93;;;8.80;99.90;;;;;;5054399;28;20208;-80
2022/11/14 08:46:03;;;;;;;30.13;18.77;;;8.70;99.90;;;;;;5053169;28;20961;-77
2022/11/14 08:48:29;;;;;;;33.57;20.57;;;8.70;99.90;;;;;;5055182;28;20245;-78
2022/11/14 08:50:55;;;;;;;37.63;21.10;;;8.80;99.90;;;;;;5054601;28;20967;-78
2022/11/14 08:53:21;;;;;;;40.30;21.07;;;8.90;99.90;;;;;;5054443;28;20428;-78
2022/11/14 08:55:48;;;;;;;36.63;19.10;;;8.90;99.90;;;;;;5053838;28;20477;-77
2022/11/14 08:58:14;;;;;;;35.50;19.57;;;8.90;99.90;;;;;;5054695;28;20419;-77
2022/11/14 09:00:40;;;;;;;35.37;19.20;;;8.90;99.90;;;;;;5054085;28;20542;-76
2022/11/14 09:03:08;;;;;;;32.83;20.00;;;8.90;99.90;;;;;;5054665;28;20474;-75
2022/11/14 09:05:35;;;;;;;36.33;22.63;;;8.90;99.90;;;;;;5052769;28;20432;-77
2022/11/14 09:08:00;;;;;;;36.40;21.23;;;8.80;99.90;;;;;;5054643;28;20422;-77
2022/11/14 09:10:26;;;;;;;41.00;20.73;;;8.90;99.90;;;;;;5068940;28;20814;-76
2022/11/14 09:12:59;;;;;;;40.67;21.60;;;8.90;99.90;;;;;;5054456;28;20759;-77
2022/11/14 09:15:27;;;;;;;38.23;21.13;;;8.90;99.90;;;;;;5053206;28;20182;-78
2022/11/14 09:17:54;;;;;;;43.20;20.60;;;8.80;99.90;;;;;;5054430;28;20447;-78
2022/11/14 09:20:21;;;;;;;37.23;21.60;;;8.80;99.90;;;;;;5053190;28;20505;-79
2022/11/14 09:22:46;;;;;;;36.60;21.40;;;8.80;99.90;;;;;;5054295;28;20511;-78
2022/11/14 09:25:12;;;;;;;37.80;21.17;;;8.80;99.90;;;;;;5053045;28;20958;-76
2022/11/14 09:27:38;;;;;;;36.87;20.20;;;8.80;99.90;;;;;;5053752;28;20180;-79
2022/11/14 09:30:04;;;;;;;36.13;22.30;;;8.80;99.90;;;;;;5053646;28;20616;-79
2022/11/14 09:32:30;;;;;;;34.87;19.03;;;8.80;99.90;;;;;;5053871;28;20251;-77
2022/11/14 09:34:56;;;;;;;36.67;19.53;;;8.90;99.90;;;;;;5052683;28;20839;-77
2022/11/14 09:37:21;;;;;;;37.83;22.13;;;8.90;99.90;;;;;;5052953;28;20188;-78
2022/11/14 09:39:47;;;;;;;41.17;22.10;;;9.00;99.90;;;;;;5069321;28;20217;-76
2022/11/14 09:42:24;;;;;;;40.27;22.67;;;8.90;99.90;;;;;;5053704;28;20193;-76
2022/11/14 09:44:58;;;;;;;41.50;23.37;;;8.90;99.90;;;;;;5052641;28;20509;-77
2022/11/14 09:47:42;;;;;;;38.17;20.87;;;8.90;99.90;;;;;;5052036;28;20466;-78
2022/11/14 09:50:31;;;;;;;40.20;20.93;;;9.00;99.90;;;;;;5068832;28;20464;-77
2022/11/14 09:53:28;;;;;;;34.90;21.17;;;9.00;99.90;;;;;;5052431;28;20427;-76
2022/11/14 09:55:53;;;;;;;47.93;23.10;;;9.00;99.90;;;;;;5052974;28;20824;-76
2022/11/14 09:58:20;;;;;;;42.03;22.10;;;8.90;99.90;;;;;;5053126;28;20505;-78
2022/11/14 10:00:54;;;;;;;43.37;21.30;;;9.00;99.90;;;;;;5052333;28;20575;-78
2022/11/14 10:03:58;;;;;;;41.17;20.87;;;8.90;99.90;;;;;;5053383;28;20493;-76
2022/11/14 10:06:39;;;;;;;37.73;21.23;;;9.00;99.90;;;;;;5049954;28;21158;-76
2022/11/14 10:09:19;;;;;;;39.17;21.30;;;9.00;99.90;;;;;;5053156;28;20420;-76
2022/11/14 10:12:03;;;;;;;44.30;22.60;;;8.90;99.90;;;;;;5053463;28;20408;-78
2022/11/14 10:14:40;;;;;;;41.20;21.10;;;8.90;99.90;;;;;;5052182;28;20423;-76
2022/11/14 10:17:25;;;;;;;38.67;21.60;;;8.90;99.90;;;;;;5051820;28;20974;-77
2022/11/14 10:20:20;;;;;;;34.27;21.07;;;8.70;99.90;;;;;;5053445;28;20409;-75
2022/11/14 10:22:57;;;;;;;41.77;22.10;;;8.70;99.90;;;;;;5032875;28;20503;-76
2022/11/14 10:25:25;;;;;;;44.93;24.07;;;8.60;99.90;;;;;;5032558;28;20397;-78
2022/11/14 10:28:11;;;;;;;46.23;24.10;;;8.60;99.90;;;;;;5033337;28;20476;-78
2022/11/14 10:31:12;;;;;;;36.73;21.63;;;8.60;99.90;;;;;;5034572;28;20777;-76
2022/11/14 10:33:43;;;;;;;42.27;21.37;;;8.50;99.90;;;;;;5019478;28;20423;-81
2022/11/14 10:36:53;;;;;;;41.70;22.13;;;8.50;99.90;;;;;;5052869;28;20433;-77
2022/11/14 10:39:52;;;;;;;40.77;21.83;;;8.60;99.90;;;;;;5053172;28;20415;-79
2022/11/14 10:42:24;;;;;;;41.47;21.97;;;8.60;99.90;;;;;;5023882;28;21055;-77
2022/11/14 10:45:17;;;;;;;35.87;21.30;;;8.60;99.90;;;;;;5052074;28;20403;-78
2022/11/14 10:47:47;;;;;;;41.13;22.43;;;8.60;99.90;;;;;;5052017;28;20418;-77
2022/11/14 10:50:20;;;;;;;41.53;22.90;;;8.60;99.90;;;;;;5056763;28;20423;-75
2022/11/14 10:52:51;;;;;;;39.37;20.83;;;8.60;99.90;;;;;;5056982;28;20415;-77
2022/11/14 10:55:18;;;;;;;36.17;22.80;;;8.60;99.90;;;;;;5055630;28;20416;-77
2022/11/14 10:57:47;;;;;;;36.37;21.50;;;8.60;99.90;;;;;;5057027;28;20435;-75
2022/11/14 11:00:19;;;;;;;41.13;22.23;;;8.60;99.90;;;;;;5056250;28;20418;-77
2022/11/14 11:02:56;;;;;;;34.33;20.70;;;8.70;99.90;;;;;;5057014;28;20414;-75
2022/11/14 11:05:24;;;;;;;39.93;20.63;;;8.80;99.90;;;;;;5055424;28;20443;-77
2022/11/14 11:13:38;;;;;;;39.73;21.90;;;8.70;99.90;;;;;;5038218;28;20397;-75
2022/11/14 11:16:05;;;;;;;42.90;20.50;;;8.70;99.90;;;;;;5055182;28;20525;-77
2022/11/14 11:18:34;;;;;;;38.80;21.20;;;8.70;99.90;;;;;;5055519;28;20951;-77
2022/11/14 11:21:20;;;;;;;43.60;21.47;;;8.80;99.90;;;;;;5056388;28;20441;-78
2022/11/14 11:23:54;;;;;;;36.63;21.50;;;8.70;99.90;;;;;;5055389;28;20425;-75
2022/11/14 11:26:24;;;;;;;40.73;22.93;;;8.80;99.90;;;;;;5055140;28;20836;-76
2022/11/14 11:29:09;;;;;;;40.10;20.90;;;8.70;99.90;;;;;;5056067;28;20747;-77
2022/11/14 11:31:50;;;;;;;47.07;21.57;;;8.80;99.90;;;;;;5045471;28;20426;-78
2022/11/14 11:34:24;;;;;;;40.20;21.43;;;8.80;99.90;;;;;;5054843;28;20422;-76
2022/11/14 11:36:56;;;;;;;41.20;21.80;;;8.80;99.90;;;;;;5056228;28;20797;-75
2022/11/14 11:39:30;;;;;;;38.23;20.37;;;8.90;99.90;;;;;;5070771;28;20429;-78
2022/11/14 11:42:01;;;;;;;45.70;21.87;;;9.00;99.90;;;;;;5071519;28;20514;-75
2022/11/14 11:44:49;;;;;;;41.57;22.90;;;9.10;99.90;;;;;;5055004;28;20798;-75
2022/11/14 11:47:18;;;;;;;35.57;21.83;;;9.20;99.90;;;;;;5056010;28;20424;-78
2022/11/14 11:49:44;;;;;;;42.33;22.50;;;9.20;99.90;;;;;;5055601;28;20914;-76
2022/11/14 11:52:33;;;;;;;41.70;22.23;;;9.20;99.90;;;;;;5054388;28;20499;-77
2022/11/14 11:55:07;;;;;;;39.67;22.40;;;9.20;99.90;;;;;;5053536;28;20209;-78
2022/11/14 11:57:41;;;;;;;45.97;23.20;;;9.20;99.90;;;;;;5055413;28;20449;-78
2022/11/14 12:00:20;;;;;;;49.00;23.23;;;9.10;99.90;;;;;;5054696;28;20402;-77
2022/11/14 12:02:49;;;;;;;40.53;22.80;;;9.20;99.90;;;;;;5055636;28;20916;-75
2022/11/14 12:05:27;;;;;;;41.07;20.93;;;9.20;99.90;;;;;;5054986;28;20939;-75
2022/11/14 12:08:34;;;;;;;35.97;21.03;;;9.30;99.90;;;;;;5054848;28;20418;-76
2022/11/14 12:11:02;;;;;;;37.50;20.50;;;9.40;99.90;;;;;;5055773;28;20401;-75
2022/11/14 12:13:48;;;;;;;37.03;21.67;;;9.50;99.90;;;;;;5054893;28;20523;-76
2022/11/14 12:17:01;;;;;;;38.80;20.90;;;9.50;99.90;;;;;;5055525;28;20420;-78
2022/11/14 12:19:45;;;;;;;34.00;19.87;;;9.50;99.90;;;;;;5035568;28;20755;-77
2022/11/14 12:22:40;;;;;;;42.20;21.40;;;9.60;99.90;;;;;;5041813;28;20448;-76
2022/11/14 12:25:46;;;;;;;41.87;22.10;;;9.70;99.90;;;;;;5054201;28;20409;-76
2022/11/14 12:28:23;;;;;;;39.70;21.70;;;9.70;99.90;;;;;;5055137;28;20417;-77
2022/11/14 12:30:56;;;;;;;38.63;21.60;;;9.80;99.90;;;;;;5055396;28;20909;-76
2022/11/14 12:33:29;;;;;;;38.80;20.90;;;9.80;99.90;;;;;;5054748;28;20420;-78
2022/11/14 12:36:08;;;;;;;44.00;22.07;;;9.90;99.90;;;;;;5054335;28;20431;-78
2022/11/14 12:38:54;;;;;;;37.40;22.27;;;9.90;99.90;;;;;;5053680;28;20383;-76
2022/11/14 12:41:32;;;;;;;36.30;21.43;;;10.00;99.90;;;;;;5054351;28;20435;-76
2022/11/14 12:44:25;;;;;;;37.53;20.80;;;10.00;99.90;;;;;;5053734;28;21111;-76
2022/11/14 12:47:04;;;;;;;36.47;20.20;;;10.10;99.90;;;;;;5054611;28;20421;-77
2022/11/14 12:49:48;;;;;;;46.17;21.77;;;10.00;99.90;;;;;;5054875;28;20991;-79
2022/11/14 12:52:55;;;;;;;41.27;21.13;;;10.10;99.90;;;;;;5054524;28;20412;-76
2022/11/14 12:55:24;;;;;;;41.53;22.27;;;10.10;99.90;;;;;;4992464;28;20912;-78